sensor_id;sensor_type;location;lat;lon;timestamp;pressure;altitude;pressure_sealevel;temperature;humidity
68077;BME280;54866;53.458;14.540;2023-07-29T00:00:10;99941.08;;;16.33;96.12
68077;BME280;54866;53.458;14.540;2023-07-29T00:02:40;99944.77;;;16.32;97.55
68077;BME280;54866;53.458;14.540;2023-07-29T00:05:09;99942.94;;;16.31;96.95
68077;BME280;54866;53.458;14.540;2023-07-29T00:07:39;99944.77;;;16.30;96.19
68077;BME280;54866;53.458;14.540;2023-07-29T00:10:09;99939.23;;;16.28;96.28
68077;BME280;54866;53.458;14.540;2023-07-29T00:12:39;99931.83;;;16.26;95.92
68077;BME280;54866;53.458;14.540;2023-07-29T00:15:09;99935.70;;;16.27;95.40
68077;BME280;54866;53.458;14.540;2023-07-29T00:17:39;99928.03;;;16.25;95.19
68077;BME280;54866;53.458;14.540;2023-07-29T00:20:09;99929.23;;;16.24;95.00
68077;BME280;54866;53.458;14.540;2023-07-29T00:22:38;99924.55;;;16.23;94.98
68077;BME280;54866;53.458;14.540;2023-07-29T00:25:08;99923.39;;;16.23;94.50
68077;BME280;54866;53.458;14.540;2023-07-29T00:27:38;99919.25;;;16.23;94.08
68077;BME280;54866;53.458;14.540;2023-07-29T00:30:09;99919.04;;;16.25;93.92
68077;BME280;54866;53.458;14.540;2023-07-29T00:32:38;99914.49;;;16.26;93.34
68077;BME280;54866;53.458;14.540;2023-07-29T00:35:09;99922.48;;;16.27;92.62
68077;BME280;54866;53.458;14.540;2023-07-29T00:37:39;99923.55;;;16.29;92.20
68077;BME280;54866;53.458;14.540;2023-07-29T00:40:14;99916.52;;;16.28;92.08
68077;BME280;54866;53.458;14.540;2023-07-29T00:42:44;99907.45;;;16.28;92.08
68077;BME280;54866;53.458;14.540;2023-07-29T00:45:13;99902.09;;;16.27;92.49
68077;BME280;54866;53.458;14.540;2023-07-29T00:47:43;99900.83;;;16.27;92.79
68077;BME280;54866;53.458;14.540;2023-07-29T00:50:14;99903.66;;;16.27;92.83
68077;BME280;54866;53.458;14.540;2023-07-29T00:52:44;99900.86;;;16.27;92.90
68077;BME280;54866;53.458;14.540;2023-07-29T00:55:13;99901.11;;;16.25;93.38
68077;BME280;54866;53.458;14.540;2023-07-29T00:57:43;99900.24;;;16.24;94.69
68077;BME280;54866;53.458;14.540;2023-07-29T01:00:16;99906.02;;;16.27;95.56
68077;BME280;54866;53.458;14.540;2023-07-29T01:02:46;99910.59;;;16.27;95.34
68077;BME280;54866;53.458;14.540;2023-07-29T01:05:17;99905.08;;;16.24;94.93
68077;BME280;54866;53.458;14.540;2023-07-29T01:07:51;99902.19;;;16.23;94.85
68077;BME280;54866;53.458;14.540;2023-07-29T01:10:33;99901.23;;;16.22;95.43
68077;BME280;54866;53.458;14.540;2023-07-29T01:13:13;99905.58;;;16.22;95.57
68077;BME280;54866;53.458;14.540;2023-07-29T01:15:51;99905.02;;;16.20;95.63
68077;BME280;54866;53.458;14.540;2023-07-29T01:18:25;99899.27;;;16.18;96.26
68077;BME280;54866;53.458;14.540;2023-07-29T01:20:58;99902.17;;;16.20;96.83
68077;BME280;54866;53.458;14.540;2023-07-29T01:23:30;99901.91;;;16.21;97.02
68077;BME280;54866;53.458;14.540;2023-07-29T01:26:00;99898.06;;;16.22;97.19
68077;BME280;54866;53.458;14.540;2023-07-29T01:28:29;99895.73;;;16.22;96.95
68077;BME280;54866;53.458;14.540;2023-07-29T01:31:06;99895.14;;;16.21;96.70
68077;BME280;54866;53.458;14.540;2023-07-29T01:33:40;99895.35;;;16.19;96.58
68077;BME280;54866;53.458;14.540;2023-07-29T01:36:15;99897.86;;;16.19;96.43
68077;BME280;54866;53.458;14.540;2023-07-29T01:38:49;99897.27;;;16.17;96.13
68077;BME280;54866;53.458;14.540;2023-07-29T01:41:21;99896.98;;;16.16;95.98
68077;BME280;54866;53.458;14.540;2023-07-29T01:43:52;99889.29;;;16.12;95.96
68077;BME280;54866;53.458;14.540;2023-07-29T01:46:22;99894.13;;;16.10;95.90
68077;BME280;54866;53.458;14.540;2023-07-29T01:48:51;99900.84;;;16.07;95.77
68077;BME280;54866;53.458;14.540;2023-07-29T01:51:20;99902.91;;;16.06;95.63
68077;BME280;54866;53.458;14.540;2023-07-29T01:53:50;99900.84;;;16.03;95.81
68077;BME280;54866;53.458;14.540;2023-07-29T01:56:19;99906.21;;;16.01;95.56
68077;BME280;54866;53.458;14.540;2023-07-29T01:58:48;99905.18;;;16.01;95.23
68077;BME280;54866;53.458;14.540;2023-07-29T02:01:18;99907.20;;;15.98;94.96
68077;BME280;54866;53.458;14.540;2023-07-29T02:03:47;99901.69;;;15.96;94.96
68077;BME280;54866;53.458;14.540;2023-07-29T02:06:22;99901.87;;;15.93;95.02
68077;BME280;54866;53.458;14.540;2023-07-29T02:08:52;99897.65;;;15.91;95.02
68077;BME280;54866;53.458;14.540;2023-07-29T02:11:21;99900.09;;;15.90;95.22
68077;BME280;54866;53.458;14.540;2023-07-29T02:13:53;99903.72;;;15.89;95.90
68077;BME280;54866;53.458;14.540;2023-07-29T02:16:23;99908.60;;;15.87;96.03
68077;BME280;54866;53.458;14.540;2023-07-29T02:18:53;99902.42;;;15.85;96.38
68077;BME280;54866;53.458;14.540;2023-07-29T02:21:22;99903.33;;;15.84;96.89
68077;BME280;54866;53.458;14.540;2023-07-29T02:23:51;99900.92;;;15.83;97.64
68077;BME280;54866;53.458;14.540;2023-07-29T02:26:22;99905.04;;;15.81;98.15
68077;BME280;54866;53.458;14.540;2023-07-29T02:28:51;99903.70;;;15.79;98.44
68077;BME280;54866;53.458;14.540;2023-07-29T02:31:21;99908.63;;;15.76;98.33
68077;BME280;54866;53.458;14.540;2023-07-29T02:33:51;99910.20;;;15.73;98.39
68077;BME280;54866;53.458;14.540;2023-07-29T02:36:21;99902.98;;;15.70;98.61
68077;BME280;54866;53.458;14.540;2023-07-29T02:38:50;99902.72;;;15.67;98.95
68077;BME280;54866;53.458;14.540;2023-07-29T02:41:19;99899.89;;;15.65;99.57
68077;BME280;54866;53.458;14.540;2023-07-29T02:43:51;99899.32;;;15.63;99.56
68077;BME280;54866;53.458;14.540;2023-07-29T02:46:20;99899.61;;;15.62;99.78
68077;BME280;54866;53.458;14.540;2023-07-29T02:48:50;99901.96;;;15.59;100.00
68077;BME280;54866;53.458;14.540;2023-07-29T02:51:19;99903.52;;;15.58;100.00
68077;BME280;54866;53.458;14.540;2023-07-29T02:53:49;99906.21;;;15.56;100.00
68077;BME280;54866;53.458;14.540;2023-07-29T02:56:18;99910.50;;;15.56;100.00
68077;BME280;54866;53.458;14.540;2023-07-29T02:58:47;99909.58;;;15.55;100.00
68077;BME280;54866;53.458;14.540;2023-07-29T03:01:19;99908.25;;;15.54;100.00
68077;BME280;54866;53.458;14.540;2023-07-29T03:03:48;99910.36;;;15.53;100.00
68077;BME280;54866;53.458;14.540;2023-07-29T03:06:18;99914.05;;;15.51;100.00
68077;BME280;54866;53.458;14.540;2023-07-29T03:08:47;99913.93;;;15.49;100.00
68077;BME280;54866;53.458;14.540;2023-07-29T03:11:17;99912.91;;;15.44;100.00
68077;BME280;54866;53.458;14.540;2023-07-29T03:13:46;99911.14;;;15.44;100.00
68077;BME280;54866;53.458;14.540;2023-07-29T03:16:17;99904.75;;;15.41;100.00
68077;BME280;54866;53.458;14.540;2023-07-29T03:18:48;99902.39;;;15.39;100.00
68077;BME280;54866;53.458;14.540;2023-07-29T03:21:17;99896.11;;;15.35;100.00
68077;BME280;54866;53.458;14.540;2023-07-29T03:23:46;99898.95;;;15.35;100.00
68077;BME280;54866;53.458;14.540;2023-07-29T03:26:16;99898.12;;;15.35;100.00
68077;BME280;54866;53.458;14.540;2023-07-29T03:28:45;99895.66;;;15.33;100.00
68077;BME280;54866;53.458;14.540;2023-07-29T03:31:14;99898.88;;;15.36;100.00
68077;BME280;54866;53.458;14.540;2023-07-29T03:33:44;99905.77;;;15.38;100.00
68077;BME280;54866;53.458;14.540;2023-07-29T03:36:13;99908.02;;;15.40;100.00
68077;BME280;54866;53.458;14.540;2023-07-29T03:38:43;99913.13;;;15.42;100.00
68077;BME280;54866;53.458;14.540;2023-07-29T03:41:13;99915.12;;;15.43;100.00
68077;BME280;54866;53.458;14.540;2023-07-29T03:43:42;99909.51;;;15.44;100.00
68077;BME280;54866;53.458;14.540;2023-07-29T03:46:12;99910.88;;;15.43;100.00
68077;BME280;54866;53.458;14.540;2023-07-29T03:48:41;99914.58;;;15.45;100.00
68077;BME280;54866;53.458;14.540;2023-07-29T03:51:10;99908.02;;;15.47;100.00
68077;BME280;54866;53.458;14.540;2023-07-29T03:53:40;99900.58;;;15.48;100.00
68077;BME280;54866;53.458;14.540;2023-07-29T03:56:09;99890.54;;;15.49;100.00
68077;BME280;54866;53.458;14.540;2023-07-29T03:58:38;99897.41;;;15.52;100.00
68077;BME280;54866;53.458;14.540;2023-07-29T04:01:08;99909.41;;;15.55;100.00
68077;BME280;54866;53.458;14.540;2023-07-29T04:03:37;99906.89;;;15.57;100.00
68077;BME280;54866;53.458;14.540;2023-07-29T04:06:07;99913.98;;;15.61;100.00
68077;BME280;54866;53.458;14.540;2023-07-29T04:08:36;99925.67;;;15.67;100.00
68077;BME280;54866;53.458;14.540;2023-07-29T04:11:06;99925.25;;;15.69;100.00
68077;BME280;54866;53.458;14.540;2023-07-29T04:13:35;99924.96;;;15.73;100.00
68077;BME280;54866;53.458;14.540;2023-07-29T04:16:05;99922.65;;;15.78;100.00
68077;BME280;54866;53.458;14.540;2023-07-29T04:18:35;99918.27;;;15.83;100.00
68077;BME280;54866;53.458;14.540;2023-07-29T04:21:04;99915.69;;;15.88;100.00
68077;BME280;54866;53.458;14.540;2023-07-29T04:23:33;99914.60;;;15.92;100.00
68077;BME280;54866;53.458;14.540;2023-07-29T04:26:03;99915.63;;;15.96;100.00
68077;BME280;54866;53.458;14.540;2023-07-29T04:28:32;99912.19;;;16.00;100.00
68077;BME280;54866;53.458;14.540;2023-07-29T04:31:02;99908.98;;;16.03;100.00
68077;BME280;54866;53.458;14.540;2023-07-29T04:33:31;99907.27;;;16.08;100.00
68077;BME280;54866;53.458;14.540;2023-07-29T04:36:01;99908.94;;;16.11;100.00
68077;BME280;54866;53.458;14.540;2023-07-29T04:38:32;99916.80;;;16.14;100.00
68077;BME280;54866;53.458;14.540;2023-07-29T04:41:02;99920.13;;;16.14;100.00
68077;BME280;54866;53.458;14.540;2023-07-29T04:43:36;99921.69;;;16.13;100.00
68077;BME280;54866;53.458;14.540;2023-07-29T04:46:07;99920.44;;;16.11;100.00
68077;BME280;54866;53.458;14.540;2023-07-29T04:48:37;99915.44;;;16.16;100.00
68077;BME280;54866;53.458;14.540;2023-07-29T04:51:06;99917.51;;;16.20;100.00
68077;BME280;54866;53.458;14.540;2023-07-29T04:53:36;99922.80;;;16.25;100.00
68077;BME280;54866;53.458;14.540;2023-07-29T04:56:06;99923.27;;;16.27;100.00
68077;BME280;54866;53.458;14.540;2023-07-29T04:58:35;99921.73;;;16.29;100.00
68077;BME280;54866;53.458;14.540;2023-07-29T05:01:05;99926.14;;;16.30;100.00
68077;BME280;54866;53.458;14.540;2023-07-29T05:03:35;99921.02;;;16.28;100.00
68077;BME280;54866;53.458;14.540;2023-07-29T05:06:04;99923.74;;;16.32;100.00
68077;BME280;54866;53.458;14.540;2023-07-29T05:08:34;99919.92;;;16.36;100.00
68077;BME280;54866;53.458;14.540;2023-07-29T05:11:03;99917.77;;;16.42;100.00
68077;BME280;54866;53.458;14.540;2023-07-29T05:13:32;99919.36;;;16.48;100.00
68077;BME280;54866;53.458;14.540;2023-07-29T05:16:02;99913.94;;;16.51;100.00
68077;BME280;54866;53.458;14.540;2023-07-29T05:18:31;99909.31;;;16.57;100.00
68077;BME280;54866;53.458;14.540;2023-07-29T05:21:00;99913.72;;;16.63;100.00
68077;BME280;54866;53.458;14.540;2023-07-29T05:23:30;99915.38;;;16.73;100.00
68077;BME280;54866;53.458;14.540;2023-07-29T05:25:59;99914.04;;;16.79;100.00
68077;BME280;54866;53.458;14.540;2023-07-29T05:28:28;99916.06;;;16.86;100.00
68077;BME280;54866;53.458;14.540;2023-07-29T05:30:59;99914.89;;;16.93;100.00
68077;BME280;54866;53.458;14.540;2023-07-29T05:33:29;99911.71;;;17.04;100.00
68077;BME280;54866;53.458;14.540;2023-07-29T05:35:58;99909.39;;;17.15;100.00
68077;BME280;54866;53.458;14.540;2023-07-29T05:38:28;99907.89;;;17.27;100.00
68077;BME280;54866;53.458;14.540;2023-07-29T05:40:57;99912.95;;;17.38;100.00
68077;BME280;54866;53.458;14.540;2023-07-29T05:43:26;99912.64;;;17.45;100.00
68077;BME280;54866;53.458;14.540;2023-07-29T05:45:56;99913.72;;;17.49;100.00
68077;BME280;54866;53.458;14.540;2023-07-29T05:48:25;99919.73;;;17.50;100.00
68077;BME280;54866;53.458;14.540;2023-07-29T05:50:55;99920.37;;;17.46;100.00
68077;BME280;54866;53.458;14.540;2023-07-29T05:53:24;99918.48;;;17.45;100.00
68077;BME280;54866;53.458;14.540;2023-07-29T05:55:53;99913.16;;;17.45;100.00
68077;BME280;54866;53.458;14.540;2023-07-29T05:58:22;99916.89;;;17.44;100.00
68077;BME280;54866;53.458;14.540;2023-07-29T06:00:52;99913.45;;;17.44;100.00
68077;BME280;54866;53.458;14.540;2023-07-29T06:03:21;99915.12;;;17.46;100.00
68077;BME280;54866;53.458;14.540;2023-07-29T06:05:51;99913.05;;;17.49;100.00
68077;BME280;54866;53.458;14.540;2023-07-29T06:08:20;99910.55;;;17.49;100.00
68077;BME280;54866;53.458;14.540;2023-07-29T06:10:50;99906.55;;;17.48;100.00
68077;BME280;54866;53.458;14.540;2023-07-29T06:13:19;99906.81;;;17.49;100.00
68077;BME280;54866;53.458;14.540;2023-07-29T06:15:48;99905.12;;;17.48;100.00
68077;BME280;54866;53.458;14.540;2023-07-29T06:18:18;99905.15;;;17.51;100.00
68077;BME280;54866;53.458;14.540;2023-07-29T06:20:47;99898.52;;;17.54;100.00
68077;BME280;54866;53.458;14.540;2023-07-29T06:23:16;99895.11;;;17.55;100.00
68077;BME280;54866;53.458;14.540;2023-07-29T06:25:46;99892.93;;;17.54;100.00
68077;BME280;54866;53.458;14.540;2023-07-29T06:28:15;99890.37;;;17.56;100.00
68077;BME280;54866;53.458;14.540;2023-07-29T06:30:44;99885.36;;;17.57;100.00
68077;BME280;54866;53.458;14.540;2023-07-29T06:33:14;99877.61;;;17.58;100.00
68077;BME280;54866;53.458;14.540;2023-07-29T06:35:44;99872.39;;;17.61;100.00
68077;BME280;54866;53.458;14.540;2023-07-29T06:38:13;99868.85;;;17.65;100.00
68077;BME280;54866;53.458;14.540;2023-07-29T06:40:42;99870.61;;;17.69;100.00
68077;BME280;54866;53.458;14.540;2023-07-29T06:43:11;99873.98;;;17.73;100.00
68077;BME280;54866;53.458;14.540;2023-07-29T06:45:41;99873.39;;;17.80;100.00
68077;BME280;54866;53.458;14.540;2023-07-29T06:48:10;99864.88;;;17.79;100.00
68077;BME280;54866;53.458;14.540;2023-07-29T06:50:40;99860.96;;;17.82;100.00
68077;BME280;54866;53.458;14.540;2023-07-29T06:53:09;99863.93;;;17.89;100.00
68077;BME280;54866;53.458;14.540;2023-07-29T06:55:38;99872.66;;;17.97;100.00
68077;BME280;54866;53.458;14.540;2023-07-29T06:58:08;99868.48;;;18.02;100.00
68077;BME280;54866;53.458;14.540;2023-07-29T07:00:37;99865.98;;;18.08;100.00
68077;BME280;54866;53.458;14.540;2023-07-29T07:03:06;99863.09;;;18.16;100.00
68077;BME280;54866;53.458;14.540;2023-07-29T07:05:36;99869.66;;;18.30;100.00
68077;BME280;54866;53.458;14.540;2023-07-29T07:08:05;99866.73;;;18.44;100.00
68077;BME280;54866;53.458;14.540;2023-07-29T07:10:35;99867.61;;;18.62;100.00
68077;BME280;54866;53.458;14.540;2023-07-29T07:13:05;99867.80;;;18.82;100.00
68077;BME280;54866;53.458;14.540;2023-07-29T07:15:34;99864.80;;;19.21;100.00
68077;BME280;54866;53.458;14.540;2023-07-29T07:18:03;99865.67;;;19.86;99.80
68077;BME280;54866;53.458;14.540;2023-07-29T07:20:33;99855.75;;;20.46;98.28
68077;BME280;54866;53.458;14.540;2023-07-29T07:23:03;99857.81;;;21.10;96.11
68077;BME280;54866;53.458;14.540;2023-07-29T07:25:35;99853.82;;;21.56;93.81
68077;BME280;54866;53.458;14.540;2023-07-29T07:28:04;99852.02;;;22.02;91.70
68077;BME280;54866;53.458;14.540;2023-07-29T07:30:34;99851.73;;;22.45;87.65
68077;BME280;54866;53.458;14.540;2023-07-29T07:33:03;99850.09;;;22.83;85.98
68077;BME280;54866;53.458;14.540;2023-07-29T07:35:32;99847.81;;;23.01;83.90
68077;BME280;54866;53.458;14.540;2023-07-29T07:38:02;99846.39;;;23.16;83.64
68077;BME280;54866;53.458;14.540;2023-07-29T07:40:32;99840.75;;;23.37;81.15
68077;BME280;54866;53.458;14.540;2023-07-29T07:43:01;99850.20;;;23.57;80.05
68077;BME280;54866;53.458;14.540;2023-07-29T07:45:33;99846.11;;;23.71;79.23
68077;BME280;54866;53.458;14.540;2023-07-29T07:48:02;99844.07;;;24.01;77.83
68077;BME280;54866;53.458;14.540;2023-07-29T07:50:32;99846.87;;;24.14;76.25
68077;BME280;54866;53.458;14.540;2023-07-29T07:53:01;99842.67;;;24.21;75.33
68077;BME280;54866;53.458;14.540;2023-07-29T07:55:31;99842.16;;;24.37;74.16
68077;BME280;54866;53.458;14.540;2023-07-29T07:58:00;99842.52;;;24.45;73.30
68077;BME280;54866;53.458;14.540;2023-07-29T08:00:29;99842.58;;;24.47;72.47
68077;BME280;54866;53.458;14.540;2023-07-29T08:02:58;99844.77;;;24.54;73.29
68077;BME280;54866;53.458;14.540;2023-07-29T08:05:28;99844.24;;;24.81;72.85
68077;BME280;54866;53.458;14.540;2023-07-29T08:07:57;99831.76;;;25.12;71.09
68077;BME280;54866;53.458;14.540;2023-07-29T08:10:26;99830.48;;;25.23;70.04
68077;BME280;54866;53.458;14.540;2023-07-29T08:12:56;99822.97;;;25.28;69.48
68077;BME280;54866;53.458;14.540;2023-07-29T08:15:25;99819.23;;;25.26;69.10
68077;BME280;54866;53.458;14.540;2023-07-29T08:17:55;99816.41;;;25.11;69.20
68077;BME280;54866;53.458;14.540;2023-07-29T08:20:24;99820.83;;;25.13;69.14
68077;BME280;54866;53.458;14.540;2023-07-29T08:22:53;99820.56;;;25.22;69.72
68077;BME280;54866;53.458;14.540;2023-07-29T08:25:23;99818.73;;;25.32;69.98
68077;BME280;54866;53.458;14.540;2023-07-29T08:27:52;99818.23;;;25.47;68.39
68077;BME280;54866;53.458;14.540;2023-07-29T08:30:22;99820.95;;;25.53;68.28
68077;BME280;54866;53.458;14.540;2023-07-29T08:32:51;99817.09;;;25.44;68.91
68077;BME280;54866;53.458;14.540;2023-07-29T08:35:20;99812.13;;;25.36;68.73
68077;BME280;54866;53.458;14.540;2023-07-29T08:37:50;99810.31;;;25.29;69.01
68077;BME280;54866;53.458;14.540;2023-07-29T08:40:22;99802.30;;;25.38;69.58
68077;BME280;54866;53.458;14.540;2023-07-29T08:42:55;99803.28;;;25.43;67.59
68077;BME280;54866;53.458;14.540;2023-07-29T08:45:27;99808.52;;;25.62;67.26
68077;BME280;54866;53.458;14.540;2023-07-29T08:47:59;99803.52;;;25.72;66.66
68077;BME280;54866;53.458;14.540;2023-07-29T08:50:33;99803.44;;;25.84;66.43
68077;BME280;54866;53.458;14.540;2023-07-29T08:53:05;99805.84;;;25.97;65.82
68077;BME280;54866;53.458;14.540;2023-07-29T08:55:34;99803.98;;;26.07;65.55
68077;BME280;54866;53.458;14.540;2023-07-29T08:58:04;99800.60;;;26.05;64.58
68077;BME280;54866;53.458;14.540;2023-07-29T09:00:34;99812.52;;;25.95;64.08
68077;BME280;54866;53.458;14.540;2023-07-29T09:03:03;99808.42;;;25.76;64.84
68077;BME280;54866;53.458;14.540;2023-07-29T09:05:35;99800.39;;;25.71;65.08
68077;BME280;54866;53.458;14.540;2023-07-29T09:08:05;99807.73;;;25.97;63.68
68077;BME280;54866;53.458;14.540;2023-07-29T09:10:37;99808.99;;;26.27;62.25
68077;BME280;54866;53.458;14.540;2023-07-29T09:13:08;99800.64;;;26.40;61.34
68077;BME280;54866;53.458;14.540;2023-07-29T09:15:38;99795.42;;;26.66;60.03
68077;BME280;54866;53.458;14.540;2023-07-29T09:18:17;99785.67;;;26.91;58.16
68077;BME280;54866;53.458;14.540;2023-07-29T09:20:49;99790.55;;;26.98;57.60
68077;BME280;54866;53.458;14.540;2023-07-29T09:23:19;99787.13;;;26.87;58.13
68077;BME280;54866;53.458;14.540;2023-07-29T09:25:48;99780.38;;;26.87;57.52
68077;BME280;54866;53.458;14.540;2023-07-29T09:28:18;99791.81;;;26.88;57.48
68077;BME280;54866;53.458;14.540;2023-07-29T09:30:48;99790.45;;;26.70;57.16
68077;BME280;54866;53.458;14.540;2023-07-29T09:33:19;99781.85;;;26.41;57.20
68077;BME280;54866;53.458;14.540;2023-07-29T09:35:48;99773.50;;;26.20;58.07
68077;BME280;54866;53.458;14.540;2023-07-29T09:38:18;99774.48;;;26.14;59.15
68077;BME280;54866;53.458;14.540;2023-07-29T09:40:47;99764.95;;;26.42;59.46
68077;BME280;54866;53.458;14.540;2023-07-29T09:43:18;99763.29;;;26.85;57.70
68077;BME280;54866;53.458;14.540;2023-07-29T09:45:47;99768.91;;;27.11;56.56
68077;BME280;54866;53.458;14.540;2023-07-29T09:48:20;99761.47;;;27.23;56.47
68077;BME280;54866;53.458;14.540;2023-07-29T09:50:51;99770.81;;;27.20;55.58
68077;BME280;54866;53.458;14.540;2023-07-29T09:53:21;99759.52;;;27.04;55.68
68077;BME280;54866;53.458;14.540;2023-07-29T09:55:50;99752.16;;;26.94;55.87
68077;BME280;54866;53.458;14.540;2023-07-29T09:58:27;99748.88;;;27.06;55.97
68077;BME280;54866;53.458;14.540;2023-07-29T10:00:57;99748.40;;;27.24;54.17
68077;BME280;54866;53.458;14.540;2023-07-29T10:03:27;99743.25;;;27.28;53.82
68077;BME280;54866;53.458;14.540;2023-07-29T10:05:56;99741.16;;;27.09;53.72
68077;BME280;54866;53.458;14.540;2023-07-29T10:08:30;99738.77;;;26.83;54.84
68077;BME280;54866;53.458;14.540;2023-07-29T10:11:00;99731.70;;;26.68;55.24
68077;BME280;54866;53.458;14.540;2023-07-29T10:13:30;99721.98;;;26.85;55.28
68077;BME280;54866;53.458;14.540;2023-07-29T10:16:00;99721.70;;;27.42;55.15
68077;BME280;54866;53.458;14.540;2023-07-29T10:18:31;99719.17;;;27.86;53.75
68077;BME280;54866;53.458;14.540;2023-07-29T10:21:01;99707.15;;;27.91;52.71
68077;BME280;54866;53.458;14.540;2023-07-29T10:23:40;99699.86;;;28.07;52.36
68077;BME280;54866;53.458;14.540;2023-07-29T10:26:12;99694.09;;;28.37;52.02
68077;BME280;54866;53.458;14.540;2023-07-29T10:28:46;99681.73;;;28.76;49.79
68077;BME280;54866;53.458;14.540;2023-07-29T10:31:17;99683.86;;;28.52;50.00
68077;BME280;54866;53.458;14.540;2023-07-29T10:33:48;99685.94;;;28.36;50.58
68077;BME280;54866;53.458;14.540;2023-07-29T10:36:18;99680.46;;;28.13;51.14
68077;BME280;54866;53.458;14.540;2023-07-29T10:38:48;99675.50;;;27.97;51.97
68077;BME280;54866;53.458;14.540;2023-07-29T10:41:18;99669.08;;;27.97;51.10
68077;BME280;54866;53.458;14.540;2023-07-29T10:43:47;99668.58;;;27.88;51.14
68077;BME280;54866;53.458;14.540;2023-07-29T10:46:20;99658.20;;;27.89;50.80
68077;BME280;54866;53.458;14.540;2023-07-29T10:48:56;99653.43;;;28.03;50.94
68077;BME280;54866;53.458;14.540;2023-07-29T10:51:30;99647.85;;;27.92;51.03
68077;BME280;54866;53.458;14.540;2023-07-29T10:54:03;99642.55;;;27.76;51.75
68077;BME280;54866;53.458;14.540;2023-07-29T10:56:34;99642.58;;;27.97;51.44
68077;BME280;54866;53.458;14.540;2023-07-29T10:59:31;99639.23;;;28.06;51.05
68077;BME280;54866;53.458;14.540;2023-07-29T11:02:02;99627.25;;;28.38;50.25
68077;BME280;54866;53.458;14.540;2023-07-29T11:04:49;99628.36;;;28.16;50.27
68077;BME280;54866;53.458;14.540;2023-07-29T11:07:26;99626.64;;;27.82;51.00
68077;BME280;54866;53.458;14.540;2023-07-29T11:09:58;99619.45;;;27.61;52.27
68077;BME280;54866;53.458;14.540;2023-07-29T11:12:41;99617.63;;;27.64;51.65
68077;BME280;54866;53.458;14.540;2023-07-29T11:15:21;99618.56;;;27.60;51.77
68077;BME280;54866;53.458;14.540;2023-07-29T11:17:53;99629.31;;;27.35;52.32
68077;BME280;54866;53.458;14.540;2023-07-29T11:20:24;99619.54;;;27.05;53.36
68077;BME280;54866;53.458;14.540;2023-07-29T11:22:55;99608.42;;;26.62;54.39
68077;BME280;54866;53.458;14.540;2023-07-29T11:25:27;99607.42;;;26.38;55.69
68077;BME280;54866;53.458;14.540;2023-07-29T11:27:58;99600.98;;;26.21;56.34
68077;BME280;54866;53.458;14.540;2023-07-29T11:30:27;99592.61;;;26.11;57.24
68077;BME280;54866;53.458;14.540;2023-07-29T11:32:59;99597.70;;;26.08;58.66
68077;BME280;54866;53.458;14.540;2023-07-29T11:35:28;99615.02;;;26.11;59.47
68077;BME280;54866;53.458;14.540;2023-07-29T11:37:57;99605.64;;;26.17;60.27
68077;BME280;54866;53.458;14.540;2023-07-29T11:40:27;99602.36;;;26.36;60.61
68077;BME280;54866;53.458;14.540;2023-07-29T11:42:56;99622.30;;;26.52;60.75
68077;BME280;54866;53.458;14.540;2023-07-29T11:45:26;99617.66;;;26.48;60.42
68077;BME280;54866;53.458;14.540;2023-07-29T11:47:55;99633.29;;;26.19;61.42
68077;BME280;54866;53.458;14.540;2023-07-29T11:50:24;99624.29;;;25.90;62.24
68077;BME280;54866;53.458;14.540;2023-07-29T11:52:55;99615.73;;;25.87;62.36
68077;BME280;54866;53.458;14.540;2023-07-29T11:55:25;99598.27;;;26.07;62.42
68077;BME280;54866;53.458;14.540;2023-07-29T11:57:54;99597.55;;;26.34;61.55
68077;BME280;54866;53.458;14.540;2023-07-29T12:00:24;99594.13;;;26.48;61.02
68077;BME280;54866;53.458;14.540;2023-07-29T12:02:54;99591.23;;;26.45;60.88
68077;BME280;54866;53.458;14.540;2023-07-29T12:05:25;99581.17;;;26.36;60.74
68077;BME280;54866;53.458;14.540;2023-07-29T12:07:55;99584.21;;;26.15;63.19
68077;BME280;54866;53.458;14.540;2023-07-29T12:10:25;99590.86;;;26.03;64.13
68077;BME280;54866;53.458;14.540;2023-07-29T12:12:54;99606.66;;;25.82;65.23
68077;BME280;54866;53.458;14.540;2023-07-29T12:15:28;99618.98;;;25.39;66.97
68077;BME280;54866;53.458;14.540;2023-07-29T12:17:58;99645.48;;;24.73;69.50
68077;BME280;54866;53.458;14.540;2023-07-29T12:20:29;99644.55;;;23.95;72.43
68077;BME280;54866;53.458;14.540;2023-07-29T12:22:59;99649.98;;;23.06;77.14
68077;BME280;54866;53.458;14.540;2023-07-29T12:25:31;99651.63;;;22.13;81.52
68077;BME280;54866;53.458;14.540;2023-07-29T12:28:05;99624.73;;;21.28;87.10
68077;BME280;54866;53.458;14.540;2023-07-29T12:30:40;99614.62;;;20.33;91.46
68077;BME280;54866;53.458;14.540;2023-07-29T12:33:10;99644.75;;;19.46;97.13
68077;BME280;54866;53.458;14.540;2023-07-29T12:35:40;99684.09;;;18.85;99.97
68077;BME280;54866;53.458;14.540;2023-07-29T12:38:09;99690.56;;;18.46;100.00
68077;BME280;54866;53.458;14.540;2023-07-29T12:40:40;99683.10;;;18.17;100.00
68077;BME280;54866;53.458;14.540;2023-07-29T12:43:10;99678.86;;;17.96;100.00
68077;BME280;54866;53.458;14.540;2023-07-29T12:45:39;99681.64;;;17.84;100.00
68077;BME280;54866;53.458;14.540;2023-07-29T12:48:10;99701.48;;;17.75;100.00
68077;BME280;54866;53.458;14.540;2023-07-29T12:50:39;99711.77;;;17.69;100.00
68077;BME280;54866;53.458;14.540;2023-07-29T12:53:09;99705.33;;;17.67;100.00
68077;BME280;54866;53.458;14.540;2023-07-29T12:55:39;99691.94;;;17.67;100.00
68077;BME280;54866;53.458;14.540;2023-07-29T12:58:08;99697.55;;;17.65;100.00
68077;BME280;54866;53.458;14.540;2023-07-29T13:00:38;99701.34;;;17.66;100.00